Time;durP1;ratioP1;P1;durP2;ratioP2;P2;SDS_P1;SDS_P2;PMS_P1;PMS_P2;Temp;Humidity;BMP_temperature;BMP_pressure;BME280_temperature;BME280_humidity;BME280_pressure;Samples;Min_cycle;Max_cycle;Signal;HPM_P1;HPM_P2
2022/06/12 00:00:45;;;;;;;10.68;3.85;;;12.10;99.90;;;;;;4788543;29;20050;-66
2022/06/12 00:03:14;;;;;;;7.43;3.47;;;12.10;99.90;;;;;;4789769;29;20066;-66
2022/06/12 00:05:43;;;;;;;8.98;3.97;;;12.10;99.90;;;;;;4789958;29;20051;-68
2022/06/12 00:08:09;;;;;;;7.93;4.22;;;12.10;99.90;;;;;;4803236;29;20996;-67
2022/06/12 00:10:37;;;;;;;11.32;4.57;;;12.10;99.90;;;;;;4803456;29;20058;-66
2022/06/12 00:13:04;;;;;;;6.40;3.17;;;12.10;99.90;;;;;;4805171;29;20046;-68
2022/06/12 00:15:30;;;;;;;11.77;4.68;;;12.10;99.90;;;;;;4805864;29;20129;-68
2022/06/12 00:17:57;;;;;;;10.98;4.60;;;12.10;99.90;;;;;;4787461;29;20055;-65
2022/06/12 00:20:24;;;;;;;9.45;4.20;;;12.10;99.90;;;;;;4803970;29;20034;-67
2022/06/12 00:22:52;;;;;;;6.80;4.18;;;12.10;99.90;;;;;;4805632;29;20067;-67
2022/06/12 00:25:18;;;;;;;12.57;4.13;;;12.00;99.90;;;;;;4805278;29;20416;-68
2022/06/12 00:27:44;;;;;;;8.25;3.78;;;12.00;99.90;;;;;;4789056;29;20054;-68
2022/06/12 00:30:13;;;;;;;11.98;4.20;;;12.00;99.90;;;;;;4786160;29;20070;-67
2022/06/12 00:32:40;;;;;;;7.95;3.90;;;11.90;99.90;;;;;;4787081;29;20059;-68
2022/06/12 00:35:07;;;;;;;8.00;3.88;;;11.90;99.90;;;;;;4803407;29;20129;-67
2022/06/12 00:37:33;;;;;;;7.25;3.88;;;11.90;99.90;;;;;;4789035;29;20099;-68
2022/06/12 00:39:59;;;;;;;10.52;4.90;;;11.90;99.90;;;;;;4805011;29;20066;-68
2022/06/12 00:42:24;;;;;;;6.72;4.03;;;11.90;99.90;;;;;;4788013;29;20042;-68
2022/06/12 00:44:52;;;;;;;10.50;4.00;;;11.90;99.90;;;;;;4789438;29;20069;-67
2022/06/12 00:47:18;;;;;;;6.13;3.63;;;11.80;99.90;;;;;;4777658;29;20481;-68
2022/06/12 00:50:05;;;;;;;10.65;3.70;;;11.80;99.90;;;;;;4804205;29;20519;-67
2022/06/12 00:52:41;;;;;;;6.53;3.53;;;11.80;99.90;;;;;;4803662;29;20084;-66
2022/06/12 00:55:13;;;;;;;5.65;4.07;;;11.80;99.90;;;;;;4805527;29;20141;-67
2022/06/12 00:57:39;;;;;;;6.35;3.53;;;11.70;99.90;;;;;;4803620;29;20057;-67
2022/06/12 01:00:11;;;;;;;10.57;4.10;;;11.70;99.90;;;;;;4787334;29;20043;-66
2022/06/12 01:02:39;;;;;;;8.25;4.40;;;11.70;99.90;;;;;;4789010;29;20057;-66
2022/06/12 01:07:55;;;;;;;9.50;4.30;;;11.70;99.90;;;;;;4805107;29;20058;-68
2022/06/12 01:10:25;;;;;;;9.95;4.47;;;11.60;99.90;;;;;;4802895;29;20098;-67
2022/06/12 01:12:57;;;;;;;11.32;4.28;;;11.60;99.90;;;;;;4803250;29;20062;-68
2022/06/12 01:15:39;;;;;;;6.50;3.92;;;11.60;99.90;;;;;;4789379;29;20055;-67
2022/06/12 01:18:09;;;;;;;7.30;4.00;;;11.60;99.90;;;;;;4802776;29;20155;-67
2022/06/12 01:20:47;;;;;;;10.73;4.20;;;11.60;99.90;;;;;;4787102;29;20812;-66
2022/06/12 01:23:43;;;;;;;7.32;4.07;;;11.60;99.90;;;;;;4786983;29;20066;-67
2022/06/12 01:26:41;;;;;;;7.55;4.00;;;11.60;99.90;;;;;;4803865;29;20054;-67
2022/06/12 01:29:33;;;;;;;7.28;3.80;;;11.60;99.90;;;;;;4774239;29;20439;-68
2022/06/12 01:32:05;;;;;;;8.95;3.42;;;11.60;99.90;;;;;;4801153;29;20046;-67
2022/06/12 01:34:40;;;;;;;9.63;4.15;;;11.50;99.90;;;;;;4808292;29;20090;-67
2022/06/12 01:37:32;;;;;;;7.82;4.10;;;11.50;99.90;;;;;;4789616;29;20070;-67
2022/06/12 01:40:15;;;;;;;10.02;4.07;;;11.50;99.90;;;;;;4803413;29;20054;-67
2022/06/12 01:43:01;;;;;;;6.10;3.75;;;11.50;99.90;;;;;;4807355;29;20047;-67
2022/06/12 01:45:35;;;;;;;7.13;3.85;;;11.40;99.90;;;;;;4806101;29;20051;-67
2022/06/12 01:48:17;;;;;;;5.88;3.65;;;11.40;99.90;;;;;;4790508;29;20070;-66
2022/06/12 01:50:54;;;;;;;8.20;4.07;;;11.30;99.90;;;;;;4804677;29;20047;-67
2022/06/12 01:53:41;;;;;;;6.93;3.80;;;11.30;99.90;;;;;;4791420;29;20058;-68
2022/06/12 01:56:17;;;;;;;6.30;3.97;;;11.30;99.90;;;;;;4806596;29;20497;-68
2022/06/12 01:58:59;;;;;;;6.80;3.70;;;11.30;99.90;;;;;;4791162;29;20043;-66
2022/06/12 02:01:29;;;;;;;9.10;3.95;;;11.30;99.90;;;;;;4788858;29;20054;-66
2022/06/12 02:04:17;;;;;;;8.85;3.80;;;11.30;99.90;;;;;;4807316;29;20057;-67
2022/06/12 02:06:51;;;;;;;8.90;4.10;;;11.30;99.90;;;;;;4807810;29;20055;-67
2022/06/12 02:09:22;;;;;;;8.73;3.72;;;11.30;99.90;;;;;;4789856;30;20115;-67
2022/06/12 02:14:57;;;;;;;8.15;4.28;;;11.20;99.90;;;;;;4791646;29;20051;-68
2022/06/12 02:17:30;;;;;;;7.93;4.13;;;11.30;99.90;;;;;;4804388;29;20059;-67
2022/06/12 02:19:56;;;;;;;11.13;4.47;;;11.30;99.90;;;;;;4790737;29;20125;-68
2022/06/12 02:22:26;;;;;;;6.82;3.80;;;11.30;99.90;;;;;;4806127;29;20038;-68
2022/06/12 02:24:57;;;;;;;7.22;3.63;;;11.30;99.90;;;;;;4776610;29;20066;-68
2022/06/12 02:27:35;;;;;;;6.43;3.53;;;11.20;99.90;;;;;;4807288;29;20438;-66
2022/06/12 02:30:09;;;;;;;6.53;3.92;;;11.20;99.90;;;;;;4789019;29;20059;-67
2022/06/12 02:32:42;;;;;;;7.88;3.92;;;11.20;99.90;;;;;;4806013;29;20051;-66
2022/06/12 02:35:17;;;;;;;12.38;4.38;;;11.20;99.90;;;;;;4807376;29;20055;-68
2022/06/12 02:37:46;;;;;;;9.90;3.72;;;11.20;99.90;;;;;;4775828;29;20051;-68
2022/06/12 02:40:27;;;;;;;8.60;3.85;;;11.20;99.90;;;;;;4807613;29;20055;-66
2022/06/12 02:42:57;;;;;;;6.20;3.75;;;11.10;99.90;;;;;;4805473;29;20062;-68
2022/06/12 02:45:33;;;;;;;7.07;3.53;;;11.10;99.90;;;;;;4790842;29;20042;-68
2022/06/12 02:48:00;;;;;;;6.72;4.15;;;11.10;99.90;;;;;;4805365;29;20055;-67
2022/06/12 02:50:31;;;;;;;10.52;3.97;;;11.10;99.90;;;;;;4790019;29;20063;-68
2022/06/12 02:53:19;;;;;;;8.00;4.20;;;11.10;99.90;;;;;;4802131;29;20054;-67
2022/06/12 02:55:58;;;;;;;8.98;3.97;;;11.00;99.90;;;;;;4789703;29;20079;-68
2022/06/12 02:58:43;;;;;;;6.43;3.88;;;11.00;99.90;;;;;;4805997;29;20047;-67
2022/06/12 03:01:14;;;;;;;6.85;3.90;;;11.00;99.90;;;;;;4788506;29;20055;-67
2022/06/12 03:03:52;;;;;;;11.68;4.25;;;11.00;99.90;;;;;;4807072;29;20063;-68
2022/06/12 03:06:19;;;;;;;9.45;4.15;;;11.00;99.90;;;;;;4805822;29;20501;-66
2022/06/12 03:08:48;;;;;;;11.98;4.60;;;11.00;99.90;;;;;;4806085;29;20063;-67
2022/06/12 03:11:21;;;;;;;8.68;3.80;;;11.10;99.90;;;;;;4774443;29;20058;-68
2022/06/12 03:13:49;;;;;;;6.93;4.22;;;11.00;99.90;;;;;;4806916;29;20059;-66
2022/06/12 03:16:19;;;;;;;9.25;4.13;;;11.00;99.90;;;;;;4789472;29;20537;-66
2022/06/12 03:18:54;;;;;;;7.47;3.83;;;11.00;99.90;;;;;;4789463;29;20057;-68
2022/06/12 03:21:47;;;;;;;10.30;4.53;;;11.00;99.90;;;;;;4803699;29;20544;-66
2022/06/12 03:24:41;;;;;;;8.43;3.85;;;11.00;99.90;;;;;;4806283;29;20058;-67
2022/06/12 03:27:28;;;;;;;8.55;4.20;;;11.00;99.90;;;;;;4790008;29;20066;-67
2022/06/12 03:30:13;;;;;;;6.55;3.72;;;11.00;99.90;;;;;;4806338;29;20457;-66
2022/06/12 03:33:18;;;;;;;7.57;3.92;;;11.00;99.90;;;;;;4788723;29;20054;-67
2022/06/12 03:35:57;;;;;;;7.35;3.47;;;11.10;99.90;;;;;;4762322;29;20055;-66
2022/06/12 03:38:37;;;;;;;8.07;3.92;;;11.00;99.90;;;;;;4806092;29;20050;-67
2022/06/12 03:41:20;;;;;;;7.22;3.80;;;11.10;99.90;;;;;;4789155;29;20097;-67
2022/06/12 03:44:07;;;;;;;6.50;3.50;;;11.20;99.90;;;;;;4801698;29;20055;-67
2022/06/12 03:46:46;;;;;;;7.60;4.00;;;11.20;99.90;;;;;;4805645;29;20126;-67
2022/06/12 03:49:45;;;;;;;7.95;3.53;;;11.20;99.90;;;;;;4803741;29;20075;-67
2022/06/12 03:52:17;;;;;;;7.40;4.07;;;11.20;99.90;;;;;;4805102;29;20051;-67
2022/06/12 03:55:07;;;;;;;8.32;3.75;;;11.20;99.90;;;;;;4788901;29;20047;-68
2022/06/12 03:57:52;;;;;;;9.38;3.55;;;11.30;99.90;;;;;;4803805;29;20051;-67
2022/06/12 04:00:30;;;;;;;7.82;4.10;;;11.30;99.90;;;;;;4805593;29;20123;-67
2022/06/12 04:03:12;;;;;;;8.57;3.80;;;11.30;99.90;;;;;;4805294;29;20477;-67
2022/06/12 04:05:42;;;;;;;6.93;3.90;;;11.40;99.90;;;;;;4786476;29;20058;-68
2022/06/12 04:08:13;;;;;;;6.53;3.83;;;11.40;99.90;;;;;;4786286;29;20095;-67
2022/06/12 04:10:40;;;;;;;7.40;3.05;;;11.50;99.90;;;;;;4789369;29;20111;-68
2022/06/12 04:13:10;;;;;;;11.23;4.00;;;11.50;99.90;;;;;;4805830;29;20055;-67
2022/06/12 04:15:45;;;;;;;8.25;3.47;;;11.60;99.90;;;;;;4804536;29;20055;-66
2022/06/12 04:18:11;;;;;;;7.68;3.67;;;11.70;99.90;;;;;;4789375;29;20055;-68
2022/06/12 04:21:02;;;;;;;7.95;3.65;;;11.70;99.90;;;;;;4805115;29;20055;-67
2022/06/12 04:23:56;;;;;;;12.98;3.72;;;11.80;99.90;;;;;;4805847;29;20058;-66
2022/06/12 04:26:33;;;;;;;8.75;2.88;;;11.90;99.90;;;;;;4803187;29;20382;-67
2022/06/12 04:29:03;;;;;;;7.20;2.80;;;11.90;99.90;;;;;;4804297;29;20055;-67
2022/06/12 04:31:31;;;;;;;7.15;3.35;;;12.00;99.90;;;;;;4805440;29;20061;-66
2022/06/12 04:34:13;;;;;;;7.85;3.60;;;12.10;99.90;;;;;;4804808;29;20047;-66
2022/06/12 04:36:40;;;;;;;10.67;3.70;;;12.10;99.90;;;;;;4786669;29;20078;-68
2022/06/12 04:39:07;;;;;;;4.60;3.08;;;12.20;99.90;;;;;;4789423;29;20112;-66
2022/06/12 04:41:38;;;;;;;6.25;3.40;;;12.20;99.90;;;;;;4805180;29;20066;-67
2022/06/12 04:44:05;;;;;;;8.90;3.47;;;12.30;99.90;;;;;;4805338;29;20122;-68
2022/06/12 04:46:33;;;;;;;6.60;3.20;;;12.40;99.90;;;;;;4802060;29;20054;-68
2022/06/12 04:48:59;;;;;;;6.32;3.10;;;12.40;99.90;;;;;;4805545;29;20059;-68
2022/06/12 04:51:25;;;;;;;7.53;2.88;;;12.50;99.90;;;;;;4804989;29;20099;-68
2022/06/12 04:53:52;;;;;;;8.75;3.38;;;12.60;99.90;;;;;;4789256;29;20130;-67
2022/06/12 04:56:19;;;;;;;6.10;3.33;;;12.60;99.90;;;;;;4803300;29;20113;-68
2022/06/12 04:58:44;;;;;;;7.80;3.15;;;12.60;99.90;;;;;;4804698;29;20422;-68
2022/06/12 05:01:11;;;;;;;5.68;2.88;;;12.80;99.90;;;;;;4803339;29;20047;-68
2022/06/12 05:03:36;;;;;;;11.40;3.60;;;12.90;99.90;;;;;;4802204;29;20050;-68
2022/06/12 05:06:04;;;;;;;7.60;3.30;;;13.00;99.90;;;;;;4804768;29;20131;-66
2022/06/12 05:08:30;;;;;;;7.85;3.63;;;13.10;99.90;;;;;;4791223;29;20103;-68
2022/06/12 05:10:56;;;;;;;10.88;3.40;;;13.20;99.90;;;;;;4783434;29;20057;-66
2022/06/12 05:13:22;;;;;;;8.32;3.22;;;13.30;99.90;;;;;;4791817;29;20377;-68
2022/06/12 05:15:48;;;;;;;9.48;3.33;;;13.40;99.90;;;;;;4805369;29;20081;-69
2022/06/12 05:18:16;;;;;;;7.93;3.25;;;13.50;99.90;;;;;;4790748;29;20158;-67
2022/06/12 05:20:42;;;;;;;9.18;2.83;;;13.70;99.90;;;;;;4807859;29;20058;-68
2022/06/12 05:23:08;;;;;;;6.95;3.10;;;13.80;99.90;;;;;;4808040;29;20073;-68
2022/06/12 05:25:34;;;;;;;7.97;3.15;;;13.90;99.90;;;;;;4807146;29;20046;-67
2022/06/12 05:28:02;;;;;;;6.82;3.05;;;14.10;99.90;;;;;;4804565;29;20070;-68
2022/06/12 05:30:31;;;;;;;12.73;3.65;;;14.50;99.90;;;;;;4790021;29;20054;-69
2022/06/12 05:32:59;;;;;;;8.70;3.60;;;15.50;99.90;;;;;;4807170;29;20054;-68
2022/06/12 05:35:26;;;;;;;7.32;3.40;;;16.60;99.90;;;;;;4807124;29;20390;-67
2022/06/12 05:37:53;;;;;;;9.52;3.28;;;17.60;99.90;;;;;;4788381;29;20504;-69
2022/06/12 05:40:28;;;;;;;10.55;3.25;;;18.40;99.90;;;;;;4802106;29;20054;-68
2022/06/12 05:42:54;;;;;;;9.80;3.28;;;19.10;99.90;;;;;;4806124;29;20489;-68
2022/06/12 05:45:23;;;;;;;7.70;2.92;;;19.80;99.90;;;;;;4805396;29;20107;-68
2022/06/12 05:47:58;;;;;;;10.52;3.50;;;20.30;99.90;;;;;;4790013;29;20094;-66
2022/06/12 05:50:29;;;;;;;11.90;3.60;;;20.70;99.90;;;;;;4806918;29;20491;-69
2022/06/12 05:52:56;;;;;;;11.02;3.10;;;20.90;99.90;;;;;;4790137;29;20446;-68
2022/06/12 05:55:22;;;;;;;13.80;3.30;;;20.30;99.90;;;;;;4807162;29;20468;-68
2022/06/12 05:57:49;;;;;;;10.88;3.70;;;19.70;99.90;;;;;;4791929;29;20062;-67
2022/06/12 06:00:20;;;;;;;13.35;3.60;;;19.30;99.90;;;;;;4792318;29;20046;-66
2022/06/12 06:02:45;;;;;;;11.05;3.80;;;19.40;99.90;;;;;;4807746;29;20055;-67
2022/06/12 06:05:12;;;;;;;11.32;3.30;;;19.40;99.90;;;;;;4793580;29;20050;-68
2022/06/12 06:07:38;;;;;;;13.00;3.30;;;19.20;99.90;;;;;;4791357;29;20062;-69
2022/06/12 06:10:06;;;;;;;11.57;3.15;;;18.90;99.90;;;;;;4790974;29;20055;-68
2022/06/12 06:12:33;;;;;;;12.55;3.65;;;18.70;99.90;;;;;;4805337;29;20064;-67
2022/06/12 06:14:59;;;;;;;10.88;3.40;;;18.50;99.90;;;;;;4807353;29;20067;-70
2022/06/12 06:17:25;;;;;;;12.45;3.40;;;18.60;99.90;;;;;;4789530;29;20115;-68
2022/06/12 06:19:50;;;;;;;14.00;3.63;;;19.10;99.90;;;;;;4788937;29;20046;-70
2022/06/12 06:22:18;;;;;;;10.48;3.33;;;19.80;99.90;;;;;;4791215;29;20046;-69
2022/06/12 06:24:45;;;;;;;13.80;4.07;;;20.10;99.90;;;;;;4791625;29;20055;-69
2022/06/12 06:27:12;;;;;;;13.57;3.45;;;20.20;99.90;;;;;;4806800;29;20059;-68
2022/06/12 06:29:38;;;;;;;11.13;3.40;;;20.50;99.90;;;;;;4807295;29;20109;-69
2022/06/12 06:32:05;;;;;;;9.93;3.30;;;21.10;99.90;;;;;;4789537;29;20492;-69
2022/06/12 06:34:31;;;;;;;13.45;4.05;;;21.20;99.90;;;;;;4807735;29;20058;-69
2022/06/12 06:36:57;;;;;;;10.65;3.63;;;21.00;99.90;;;;;;4790979;29;20055;-69
2022/06/12 06:39:22;;;;;;;10.27;3.63;;;21.00;99.90;;;;;;4789521;29;20054;-67
2022/06/12 06:41:48;;;;;;;11.13;3.55;;;20.70;99.90;;;;;;4805996;29;20112;-68
2022/06/12 06:46:57;;;;;;;10.30;3.75;;;19.60;99.90;;;;;;4789800;29;20131;-67
2022/06/12 06:49:23;;;;;;;11.32;3.92;;;19.00;99.90;;;;;;4791424;29;20063;-68
2022/06/12 06:51:49;;;;;;;13.00;4.13;;;18.70;99.90;;;;;;4775932;29;20051;-68
2022/06/12 06:54:16;;;;;;;14.00;4.05;;;18.60;99.90;;;;;;4807325;29;20129;-69
2022/06/12 06:56:42;;;;;;;13.40;4.32;;;18.60;99.90;;;;;;4806652;29;20099;-65
2022/06/12 06:59:07;;;;;;;16.10;4.18;;;18.60;99.90;;;;;;4790908;29;20054;-66
2022/06/12 07:01:34;;;;;;;10.52;3.97;;;18.60;99.90;;;;;;4790685;29;20055;-68
2022/06/12 07:04:00;;;;;;;11.13;3.72;;;18.80;99.90;;;;;;4790503;29;20397;-67
2022/06/12 07:06:26;;;;;;;15.10;4.55;;;18.60;99.90;;;;;;4790152;29;20055;-67
2022/06/12 07:08:53;;;;;;;12.60;4.40;;;18.60;99.90;;;;;;4806933;29;20061;-65
2022/06/12 07:11:19;;;;;;;12.75;4.00;;;18.60;99.90;;;;;;4789847;29;20054;-68
2022/06/12 07:13:45;;;;;;;14.00;5.07;;;18.70;99.90;;;;;;4790686;29;20154;-68
2022/06/12 07:16:10;;;;;;;14.48;4.72;;;18.70;99.90;;;;;;4789430;29;20469;-66
2022/06/12 07:18:36;;;;;;;15.75;4.75;;;18.80;99.90;;;;;;4805730;29;20374;-68
2022/06/12 07:21:02;;;;;;;15.45;4.22;;;18.90;99.90;;;;;;4806141;29;20055;-66
2022/06/12 07:23:29;;;;;;;15.07;4.57;;;19.00;99.90;;;;;;4806309;29;20061;-66
2022/06/12 07:25:59;;;;;;;15.25;4.50;;;19.20;99.90;;;;;;4806339;29;20177;-68
2022/06/12 07:28:26;;;;;;;15.10;4.85;;;19.20;99.90;;;;;;4805826;29;20604;-68
2022/06/12 07:30:52;;;;;;;11.45;4.07;;;19.30;99.90;;;;;;4773667;29;20150;-69
2022/06/12 07:33:18;;;;;;;12.93;4.32;;;19.40;99.90;;;;;;4789795;29;20133;-67
2022/06/12 07:35:45;;;;;;;15.02;4.85;;;19.60;99.90;;;;;;4789835;29;20142;-66
2022/06/12 07:38:14;;;;;;;10.93;4.22;;;19.60;99.90;;;;;;4806380;29;20388;-66
2022/06/12 07:40:44;;;;;;;11.40;4.35;;;19.80;99.90;;;;;;4789864;29;20058;-67
2022/06/12 07:43:09;;;;;;;11.77;4.13;;;19.80;99.90;;;;;;4790122;29;20069;-67
2022/06/12 07:45:40;;;;;;;16.35;4.45;;;19.90;99.90;;;;;;4806077;29;20058;-65
2022/06/12 07:48:06;;;;;;;15.73;4.03;;;19.80;99.90;;;;;;4805141;29;20104;-67
2022/06/12 07:50:32;;;;;;;12.75;3.90;;;19.90;99.90;;;;;;4775233;29;20054;-69
2022/06/12 07:52:58;;;;;;;15.88;4.60;;;20.10;99.90;;;;;;4806176;29;20374;-68
2022/06/12 07:55:25;;;;;;;9.77;3.67;;;20.30;99.90;;;;;;4789837;29;20059;-68
2022/06/12 07:57:52;;;;;;;11.18;3.75;;;20.30;99.90;;;;;;4806275;29;20130;-68
2022/06/12 08:00:18;;;;;;;13.75;4.00;;;20.30;99.90;;;;;;4775060;29;20043;-68
2022/06/12 08:02:45;;;;;;;11.70;4.10;;;20.40;99.90;;;;;;4789288;29;20544;-67
2022/06/12 08:05:12;;;;;;;14.43;4.05;;;20.40;99.90;;;;;;4790045;29;20054;-66
2022/06/12 08:07:38;;;;;;;12.77;4.28;;;20.40;99.90;;;;;;4789140;29;20590;-66
2022/06/12 08:10:05;;;;;;;13.85;4.30;;;20.50;99.90;;;;;;4805965;29;20142;-68
2022/06/12 08:12:37;;;;;;;11.55;3.55;;;20.60;99.90;;;;;;4805711;29;20134;-67
2022/06/12 08:15:07;;;;;;;14.38;3.85;;;20.90;99.90;;;;;;4805921;29;20050;-68
2022/06/12 08:17:33;;;;;;;14.20;3.80;;;21.00;99.90;;;;;;4788225;29;20050;-67
2022/06/12 08:23:26;;;;;;;15.00;4.32;;;21.10;99.90;;;;;;4717375;30;20060;-69
2022/06/12 08:25:57;;;;;;;11.73;3.75;;;21.30;99.90;;;;;;4732601;30;20057;-68
2022/06/12 08:28:24;;;;;;;9.37;3.77;;;21.40;99.90;;;;;;4771098;29;20126;-68
2022/06/12 08:30:50;;;;;;;9.07;3.25;;;21.40;99.90;;;;;;4805843;29;20066;-67
2022/06/12 08:33:16;;;;;;;12.40;4.05;;;21.40;99.90;;;;;;4788951;29;20055;-67
2022/06/12 08:35:42;;;;;;;11.32;3.65;;;21.40;99.90;;;;;;4789093;29;20055;-66
2022/06/12 08:38:07;;;;;;;14.02;3.70;;;21.50;99.90;;;;;;4789472;29;20055;-67
2022/06/12 08:40:48;;;;;;;11.93;3.83;;;21.60;99.90;;;;;;4806246;29;20516;-66
2022/06/12 08:43:41;;;;;;;12.38;3.90;;;21.50;99.90;;;;;;4793053;29;20059;-67
2022/06/12 08:46:18;;;;;;;11.23;3.60;;;21.50;99.90;;;;;;4808872;29;20162;-67
2022/06/12 08:48:56;;;;;;;10.18;3.80;;;21.50;99.90;;;;;;4809142;29;20050;-68
2022/06/12 08:51:33;;;;;;;9.43;3.45;;;21.60;99.90;;;;;;4792725;29;20133;-67
2022/06/12 08:54:10;;;;;;;7.45;3.00;;;21.60;99.90;;;;;;4808364;29;20438;-67
2022/06/12 08:56:44;;;;;;;9.13;3.25;;;21.60;99.90;;;;;;4790366;29;20042;-66
2022/06/12 08:59:29;;;;;;;12.00;3.72;;;21.70;99.90;;;;;;4808367;29;20515;-66
2022/06/12 09:01:55;;;;;;;11.73;3.40;;;21.80;99.90;;;;;;4789347;29;20051;-67
2022/06/12 09:04:25;;;;;;;11.00;3.38;;;22.00;99.90;;;;;;4808931;29;20050;-66
2022/06/12 09:07:18;;;;;;;12.10;3.35;;;22.00;99.90;;;;;;4808678;29;20125;-67
2022/06/12 09:09:59;;;;;;;9.82;3.20;;;21.90;99.90;;;;;;4806682;29;20054;-66
2022/06/12 09:12:41;;;;;;;13.07;3.28;;;21.80;99.90;;;;;;4808633;29;20134;-68
2022/06/12 09:15:13;;;;;;;10.73;3.40;;;21.70;99.90;;;;;;4808972;29;20095;-66
2022/06/12 09:18:26;;;;;;;12.45;3.80;;;21.70;99.90;;;;;;4792135;29;20069;-68
2022/06/12 09:21:05;;;;;;;13.35;3.40;;;22.00;99.90;;;;;;4743573;29;20060;-68
2022/06/12 09:23:45;;;;;;;10.02;3.13;;;22.20;99.90;;;;;;4791531;29;20065;-68
2022/06/12 09:26:47;;;;;;;9.32;3.35;;;22.40;99.90;;;;;;4791695;29;20054;-66
2022/06/12 09:29:41;;;;;;;8.13;3.30;;;22.40;99.90;;;;;;4805718;29;20366;-66
2022/06/12 09:32:06;;;;;;;9.68;3.10;;;22.40;99.90;;;;;;4807268;29;20484;-68
2022/06/12 09:34:43;;;;;;;8.73;2.42;;;22.60;99.90;;;;;;4791079;29;20066;-66
2022/06/12 09:40:27;;;;;;;10.15;3.00;;;22.90;99.90;;;;;;4791251;29;20058;-67
2022/06/12 09:43:03;;;;;;;7.50;2.58;;;23.10;98.60;;;;;;4792047;29;20065;-66
2022/06/12 09:45:58;;;;;;;7.45;2.28;;;23.10;99.90;;;;;;4808315;29;20480;-66
2022/06/12 09:48:41;;;;;;;5.80;2.40;;;23.20;98.10;;;;;;4808907;29;20151;-68
2022/06/12 09:51:26;;;;;;;8.98;3.28;;;23.00;97.40;;;;;;4807017;29;20058;-67
2022/06/12 09:54:11;;;;;;;8.95;2.53;;;22.80;99.90;;;;;;4807628;29;20137;-65
2022/06/12 09:56:47;;;;;;;6.45;1.98;;;22.60;93.00;;;;;;4807032;29;20094;-66
2022/06/12 09:59:19;;;;;;;6.72;2.20;;;22.50;94.20;;;;;;4791928;29;20388;-66
2022/06/12 10:01:49;;;;;;;7.75;2.55;;;22.60;95.80;;;;;;4804426;29;20058;-66
2022/06/12 10:04:54;;;;;;;7.68;2.03;;;22.70;87.10;;;;;;4789245;29;20050;-68
2022/06/12 10:07:28;;;;;;;5.28;2.13;;;22.90;87.90;;;;;;4805570;29;20074;-66
2022/06/12 10:10:02;;;;;;;7.28;2.22;;;23.00;92.30;;;;;;4791470;29;20047;-67
2022/06/12 10:12:36;;;;;;;5.28;1.90;;;23.20;86.90;;;;;;4807685;29;20489;-68
2022/06/12 10:15:11;;;;;;;6.65;2.00;;;23.30;85.80;;;;;;4807676;29;20047;-65
2022/06/12 10:17:46;;;;;;;6.57;2.35;;;23.30;77.70;;;;;;4803613;29;20513;-66
2022/06/12 10:20:18;;;;;;;7.13;2.13;;;23.30;80.10;;;;;;4805863;29;20090;-67
2022/06/12 10:22:47;;;;;;;5.40;2.20;;;23.20;84.10;;;;;;4806906;29;20493;-68
2022/06/12 10:25:23;;;;;;;5.53;2.13;;;23.10;80.00;;;;;;4807461;29;20039;-66
2022/06/12 10:27:54;;;;;;;6.63;2.20;;;22.90;76.50;;;;;;4804556;29;20396;-68
2022/06/12 10:30:36;;;;;;;6.90;2.30;;;22.50;81.60;;;;;;4806928;29;20489;-67
2022/06/12 10:33:24;;;;;;;5.90;2.15;;;22.40;81.70;;;;;;4787693;29;20193;-66
2022/06/12 10:35:56;;;;;;;6.72;2.33;;;22.50;84.40;;;;;;4807708;29;20105;-68
2022/06/12 10:38:23;;;;;;;;;;;22.60;91.50;;;;;;4789965;29;20055;-67
2022/06/12 10:40:59;;;;;;;7.70;1.90;;;22.50;76.00;;;;;;4807102;29;19956;-68
2022/06/12 10:43:34;;;;;;;5.38;1.98;;;22.50;93.40;;;;;;4790555;29;20051;-67
2022/06/12 10:46:15;;;;;;;4.60;1.75;;;22.60;79.50;;;;;;4793502;29;20047;-67
2022/06/12 10:48:42;;;;;;;6.20;1.95;;;22.70;89.30;;;;;;4806779;29;20134;-67
2022/06/12 10:51:21;;;;;;;5.10;2.00;;;22.50;86.40;;;;;;4806731;29;20061;-68
2022/06/12 10:53:55;;;;;;;5.35;2.20;;;22.40;90.10;;;;;;4802648;29;20047;-67
2022/06/12 10:56:28;;;;;;;5.15;2.33;;;22.20;92.10;;;;;;4807028;29;20046;-67
2022/06/12 10:59:30;;;;;;;5.22;1.98;;;22.20;86.40;;;;;;4806508;29;20051;-67
2022/06/12 11:02:07;;;;;;;6.37;2.20;;;22.40;93.20;;;;;;4782031;29;20377;-66
2022/06/12 11:04:49;;;;;;;4.90;1.90;;;22.60;91.10;;;;;;4807045;29;20292;-67
2022/06/12 11:07:33;;;;;;;7.40;1.80;;;22.60;77.80;;;;;;4790240;29;20476;-69
2022/06/12 11:10:16;;;;;;;6.18;1.92;;;22.60;71.60;;;;;;4790853;29;20450;-68
2022/06/12 11:13:03;;;;;;;7.35;2.03;;;22.50;73.60;;;;;;4806074;29;20101;-68
2022/06/12 11:15:47;;;;;;;8.30;1.95;;;22.30;73.60;;;;;;4790647;29;20143;-67
2022/06/12 11:18:31;;;;;;;6.10;1.92;;;22.10;71.30;;;;;;4790100;29;20349;-69
2022/06/12 11:21:12;;;;;;;7.97;1.98;;;22.00;75.30;;;;;;4805664;29;20097;-66
2022/06/12 11:23:54;;;;;;;6.20;1.90;;;21.80;75.50;;;;;;4806646;29;20090;-66
2022/06/12 11:26:40;;;;;;;3.88;1.80;;;21.60;76.90;;;;;;4806521;29;20066;-68
2022/06/12 11:29:49;;;;;;;5.70;1.52;;;21.70;77.50;;;;;;4790542;29;20059;-67
2022/06/12 11:32:26;;;;;;;7.03;1.65;;;21.80;70.40;;;;;;4750168;30;20060;-66
2022/06/12 11:35:22;;;;;;;3.17;1.45;;;21.70;74.10;;;;;;4733579;30;20413;-66
2022/06/12 11:37:56;;;;;;;5.18;1.67;;;21.60;73.70;;;;;;4793816;29;20086;-66
2022/06/12 11:40:49;;;;;;;6.35;1.90;;;21.60;76.60;;;;;;4803936;29;20074;-65
2022/06/12 11:43:38;;;;;;;5.88;1.77;;;21.70;74.20;;;;;;4804465;29;20065;-65
2022/06/12 11:46:32;;;;;;;4.75;1.67;;;21.70;76.20;;;;;;4805635;29;20174;-66
2022/06/12 11:49:20;;;;;;;5.13;1.80;;;21.90;70.70;;;;;;4806003;29;20066;-65
2022/06/12 11:51:54;;;;;;;4.97;1.85;;;21.90;70.90;;;;;;4805097;29;20062;-66
2022/06/12 11:54:43;;;;;;;5.03;2.15;;;22.10;71.90;;;;;;4806100;29;20063;-65
2022/06/12 11:57:19;;;;;;;4.85;1.58;;;22.10;66.70;;;;;;4805875;29;20043;-67
2022/06/12 12:00:04;;;;;;;5.90;1.80;;;22.30;67.20;;;;;;4789595;29;20043;-66
2022/06/12 12:03:09;;;;;;;4.10;1.70;;;22.30;66.10;;;;;;4805449;29;20042;-68
2022/06/12 12:06:03;;;;;;;3.28;1.65;;;22.50;69.40;;;;;;4786274;29;20067;-68
2022/06/12 12:09:18;;;;;;;5.05;1.70;;;22.40;61.80;;;;;;4787663;30;20055;-68
2022/06/12 12:12:05;;;;;;;6.07;2.05;;;22.20;62.40;;;;;;4782624;30;20143;-66
2022/06/12 12:14:37;;;;;;;5.57;1.60;;;22.10;65.80;;;;;;4788090;30;20051;-67
2022/06/12 12:17:17;;;;;;;;;;;22.00;66.50;;;;;;4787392;30;20099;-66
2022/06/12 12:19:47;;;;;;;4.53;1.63;;;21.80;64.50;;;;;;4786656;29;20286;-67
2022/06/12 12:22:27;;;;;;;5.63;2.03;;;21.90;68.10;;;;;;4788666;29;20063;-67
2022/06/12 12:24:59;;;;;;;6.97;2.15;;;21.90;66.60;;;;;;4805898;29;20058;-67
2022/06/12 12:27:49;;;;;;;6.47;1.70;;;21.90;67.60;;;;;;4805470;29;20057;-66
2022/06/12 12:30:17;;;;;;;4.55;1.73;;;21.90;66.70;;;;;;4805459;29;20460;-67
2022/06/12 12:32:46;;;;;;;5.53;1.85;;;21.90;70.20;;;;;;4805558;29;20126;-65
2022/06/12 12:41:11;;;;;;;5.35;2.08;;;21.90;69.60;;;;;;4805796;29;20066;-68
2022/06/12 12:43:26;;;;;;;5.60;2.05;;;21.80;73.50;;;;;;4805781;29;20046;-67
2022/06/12 12:46:05;;;;;;;2.63;1.55;;;22.00;70.50;;;;;;4805449;29;20047;-66
2022/06/12 12:48:41;;;;;;;4.88;1.85;;;22.10;66.50;;;;;;4805873;29;20063;-66
2022/06/12 12:51:08;;;;;;;6.53;1.80;;;22.10;67.50;;;;;;4774323;29;20051;-65
2022/06/12 12:53:38;;;;;;;4.80;1.60;;;22.00;66.90;;;;;;4774978;29;20054;-67
2022/06/12 12:56:14;;;;;;;5.82;2.05;;;21.80;63.30;;;;;;4788782;29;20043;-67
2022/06/12 12:58:55;;;;;;;4.95;2.28;;;21.50;65.70;;;;;;4805450;29;20219;-65
2022/06/12 13:01:23;;;;;;;6.30;2.10;;;21.20;69.70;;;;;;4805037;29;20059;-67
2022/06/12 13:03:55;;;;;;;6.20;2.08;;;21.20;75.60;;;;;;4805686;29;20553;-67
2022/06/12 13:06:56;;;;;;;4.90;1.98;;;21.30;80.40;;;;;;4789167;29;20111;-66
2022/06/12 13:09:31;;;;;;;6.88;2.03;;;21.40;77.90;;;;;;4805802;29;20347;-67
2022/06/12 13:12:20;;;;;;;6.30;2.45;;;21.40;76.20;;;;;;4803048;29;20054;-67
2022/06/12 13:15:09;;;;;;;7.30;2.42;;;21.50;84.10;;;;;;4805621;29;20050;-67
2022/06/12 13:17:43;;;;;;;6.75;2.25;;;21.70;80.20;;;;;;4788552;29;20057;-67
2022/06/12 13:20:26;;;;;;;6.22;2.17;;;21.70;78.30;;;;;;4788958;29;20071;-67
2022/06/12 13:23:06;;;;;;;6.70;2.20;;;21.60;79.80;;;;;;4805139;29;20051;-66
2022/06/12 13:25:38;;;;;;;4.63;2.08;;;21.60;80.00;;;;;;4804654;29;20050;-67
2022/06/12 13:28:03;;;;;;;;;;;21.60;85.60;;;;;;4806702;29;20130;-65
2022/06/12 13:30:39;;;;;;;7.63;2.17;;;21.60;82.80;;;;;;4792556;29;20388;-67
2022/06/12 13:33:30;;;;;;;5.15;2.20;;;21.70;82.40;;;;;;4807888;29;20099;-65
2022/06/12 13:36:00;;;;;;;6.53;2.30;;;21.70;80.70;;;;;;4808604;29;20055;-65
2022/06/12 13:38:31;;;;;;;6.25;2.22;;;21.70;77.90;;;;;;4808470;29;20076;-67
2022/06/12 13:41:34;;;;;;;9.48;2.38;;;21.60;82.00;;;;;;4807458;29;20055;-66